This is the latest recevied weather packets stored in our database for station/object N3FU-13. If no packets are shown the sender has not sent any weather packets the latest 10 day(s).
| Time | Temp. | Humidity | Pressure | Rain* | Wind** | Luminosity | Snow |
|---|---|---|---|---|---|---|---|
| 1777903027 | 25.56° C | 68% | 1016.7 hPa | 0 mm | - | - | - |
| 1777902127 | 24.44° C | 70% | 1016.6 hPa | 0 mm | - | - | - |
| 1777901227 | 23.89° C | 71% | 1016.4 hPa | 0 mm | - | - | - |
| 1777900327 | 23.33° C | 75% | 1016.3 hPa | 0 mm | - | - | - |
| 1777899427 | 22.22° C | 77% | 1016.2 hPa | 0 mm | - | - | - |
| 1777898527 | 21.67° C | 80% | 1016.1 hPa | 0 mm | - | - | - |
| 1777897764 | 19.44° C | 86% | 1015.9 hPa | 0 mm | - | - | - |
| 1777897627 | 21.11° C | 83% | 1016.1 hPa | 0 mm | - | - | - |
| 1777896727 | 20° C | 86% | 1016.1 hPa | 0 mm | - | - | - |
| 1777895827 | 19.44° C | 86% | 1015.9 hPa | 0 mm | - | - | - |
| 1777894927 | 19.44° C | 87% | 1015.9 hPa | 0 mm | - | - | - |
| 1777894027 | 19.44° C | 87% | 1015.8 hPa | 0 mm | - | - | - |
| 1777893127 | 19.44° C | 87% | 1015.9 hPa | 0 mm | - | - | - |
| 1777892227 | 19.44° C | 87% | 1015.6 hPa | 0 mm | - | - | - |
| 1777891327 | 19.44° C | 86% | 1015.6 hPa | 0 mm | - | - | - |
| 1777890633 | 19.44° C | 86% | 1015.5 hPa | 0 mm | - | - | - |
| 1777890427 | 19.44° C | 86% | 1015.6 hPa | 0 mm | - | - | - |
| 1777889527 | 19.44° C | 86% | 1015.5 hPa | 0 mm | - | - | - |
| 1777889504 | 19.44° C | 85% | 1015.4 hPa | 0 mm | - | - | - |
| 1777888627 | 19.44° C | 85% | 1015.4 hPa | 0 mm | - | - | - |
| 1777888611 | 19.44° C | 84% | 1015.3 hPa | 0 mm | - | - | - |
| 1777887727 | 19.44° C | 84% | 1015.3 hPa | 0 mm | - | - | - |
| 1777886827 | 20° C | 84% | 1015.3 hPa | 0 mm | - | - | - |
| 1777885927 | 20° C | 83% | 1015.4 hPa | 0 mm | - | - | - |
| 1777885027 | 20° C | 83% | 1015.2 hPa | 0 mm | - | - | - |
* Rain latest hour (hover to see other rain measurements)
** Current wind speed in m/s (hover to see current wind gust speed)